Time;durP1;ratioP1;P1;durP2;ratioP2;P2;SDS_P1;SDS_P2;PMS_P1;PMS_P2;Temp;Humidity;BMP_temperature;BMP_pressure;BME280_temperature;BME280_humidity;BME280_pressure;Samples;Min_cycle;Max_cycle;Signal;HPM_P1;HPM_P2
2023/05/12 00:00:48;;;;;;;3.03;2.17;;;;;;;;;;5079379;28;20036;-73
2023/05/12 00:03:34;;;;;;;3.97;2.05;;;;;;;;;;5081225;28;20023;-75
2023/05/12 00:06:19;;;;;;;7.63;4.82;;;;;;;;;;5090648;28;20047;-71
2023/05/12 00:09:05;;;;;;;9.15;4.78;;;;;;;;;;5077068;28;20031;-71
2023/05/12 00:11:50;;;;;;;2.70;1.95;;;;;;;;;;5076907;28;20059;-71
2023/05/12 00:14:35;;;;;;;3.78;2.00;;;;;;;;;;5078585;28;20085;-69
2023/05/12 00:17:21;;;;;;;2.78;1.95;;;;;;;;;;5075689;28;20085;-71
2023/05/12 00:20:06;;;;;;;4.60;1.70;;;;;;;;;;5076331;28;20008;-73
2023/05/12 00:22:51;;;;;;;1.58;1.48;;;;;;;;;;5075856;28;20039;-72
2023/05/12 00:25:36;;;;;;;2.13;1.63;;;;;;;;;;5069800;28;20080;-68
2023/05/12 00:28:22;;;;;;;50.83;33.65;;;;;;;;;;5075070;28;20165;-72
2023/05/12 00:31:07;;;;;;;19.70;10.98;;;;;;;;;;5075800;28;20063;-69
2023/05/12 00:33:52;;;;;;;5.05;2.72;;;;;;;;;;5074696;28;20036;-67
2023/05/12 00:36:38;;;;;;;3.25;1.85;;;;;;;;;;5064527;28;20021;-68
2023/05/12 00:39:23;;;;;;;3.80;2.13;;;;;;;;;;5075121;28;20024;-67
2023/05/12 00:42:10;;;;;;;2.08;1.77;;;;;;;;;;5078280;28;20029;-77
2023/05/12 00:44:55;;;;;;;3.67;1.98;;;;;;;;;;5074897;28;20090;-72
2023/05/12 00:47:41;;;;;;;3.70;1.95;;;;;;;;;;5089683;28;20074;-72
2023/05/12 00:50:26;;;;;;;4.40;1.90;;;;;;;;;;5076423;28;20024;-72
2023/05/12 00:53:12;;;;;;;4.50;2.05;;;;;;;;;;5075889;28;20067;-73
2023/05/12 00:55:57;;;;;;;13.45;6.75;;;;;;;;;;5077135;28;20024;-71
2023/05/12 00:58:42;;;;;;;5.25;2.55;;;;;;;;;;5077137;28;20025;-76
2023/05/12 01:01:29;;;;;;;4.85;2.35;;;;;;;;;;5075965;28;20424;-70
2023/05/12 01:04:14;;;;;;;3.25;1.90;;;;;;;;;;5075260;28;20028;-72
2023/05/12 01:07:04;;;;;;;5.53;2.33;;;;;;;;;;5061374;28;20024;-70
2023/05/12 01:09:54;;;;;;;2.83;2.53;;;;;;;;;;5082639;28;20115;-71
2023/05/12 01:12:39;;;;;;;;;;;;;;;;;;5082297;28;20044;-73
2023/05/12 01:15:24;;;;;;;10.23;5.90;;;;;;;;;;5076269;28;19911;-71
2023/05/12 01:18:10;;;;;;;4.85;2.80;;;;;;;;;;5067567;28;20016;-71
2023/05/12 01:20:56;;;;;;;2.80;2.22;;;;;;;;;;5080684;28;20032;-69
2023/05/12 01:23:43;;;;;;;4.30;2.40;;;;;;;;;;5061791;28;20012;-68
2023/05/12 01:26:28;;;;;;;4.28;2.40;;;;;;;;;;5077648;28;20021;-67
2023/05/12 01:29:14;;;;;;;4.07;2.97;;;;;;;;;;5079305;28;20111;-69
2023/05/12 01:31:59;;;;;;;5.78;2.90;;;;;;;;;;5076766;28;20021;-70
2023/05/12 01:34:44;;;;;;;6.72;3.60;;;;;;;;;;5073720;28;20401;-69
2023/05/12 01:37:30;;;;;;;5.75;3.75;;;;;;;;;;5077070;28;20020;-76
2023/05/12 01:40:15;;;;;;;4.97;2.65;;;;;;;;;;5064249;28;20131;-70
2023/05/12 01:43:00;;;;;;;4.00;3.33;;;;;;;;;;5074415;28;20419;-72
2023/05/12 01:45:45;;;;;;;4.28;2.72;;;;;;;;;;5069693;28;20034;-69
2023/05/12 01:48:31;;;;;;;5.38;2.92;;;;;;;;;;5075792;28;20040;-70
2023/05/12 01:51:16;;;;;;;3.08;2.60;;;;;;;;;;5070360;28;20020;-70
2023/05/12 01:54:01;;;;;;;4.72;2.83;;;;;;;;;;5090082;28;20111;-72
2023/05/12 01:56:46;;;;;;;4.03;2.30;;;;;;;;;;5073019;28;20032;-69
2023/05/12 01:59:32;;;;;;;4.40;2.78;;;;;;;;;;5092656;28;20020;-68
2023/05/12 02:02:17;;;;;;;2.90;2.60;;;;;;;;;;5065483;28;20511;-68
2023/05/12 02:05:02;;;;;;;4.15;2.83;;;;;;;;;;5061937;28;20024;-69
2023/05/12 02:07:47;;;;;;;4.85;2.88;;;;;;;;;;5077242;28;20052;-67
2023/05/12 02:10:33;;;;;;;3.80;2.50;;;;;;;;;;5058322;28;20031;-68
2023/05/12 02:13:18;;;;;;;3.40;2.67;;;;;;;;;;5075554;28;20044;-70
2023/05/12 02:16:03;;;;;;;6.20;3.50;;;;;;;;;;5071037;28;20226;-69
2023/05/12 02:18:49;;;;;;;8.07;3.45;;;;;;;;;;5075924;28;20040;-68
2023/05/12 02:21:34;;;;;;;4.72;3.40;;;;;;;;;;5073775;28;20069;-68
2023/05/12 02:24:20;;;;;;;4.60;3.00;;;;;;;;;;5078645;28;20043;-69
2023/05/12 02:27:05;;;;;;;6.35;3.92;;;;;;;;;;5080691;28;20718;-68
2023/05/12 02:29:50;;;;;;;7.18;4.60;;;;;;;;;;5074649;28;20027;-68
2023/05/12 02:32:35;;;;;;;7.07;4.22;;;;;;;;;;5075632;28;20033;-71
2023/05/12 02:35:21;;;;;;;7.10;5.05;;;;;;;;;;5075790;28;20027;-71
2023/05/12 02:38:06;;;;;;;5.32;4.20;;;;;;;;;;5074888;28;20016;-70
2023/05/12 02:40:51;;;;;;;8.65;5.18;;;;;;;;;;5061539;28;20308;-69
2023/05/12 02:43:37;;;;;;;4.53;3.47;;;;;;;;;;5075941;28;20028;-71
2023/05/12 02:46:22;;;;;;;4.80;3.20;;;;;;;;;;5071908;28;20062;-69
2023/05/12 02:49:07;;;;;;;3.55;2.90;;;;;;;;;;5072794;28;20024;-67
2023/05/12 02:51:54;;;;;;;6.72;3.70;;;;;;;;;;5074793;28;20123;-75
2023/05/12 02:54:39;;;;;;;7.20;3.88;;;;;;;;;;5062801;28;20096;-73
2023/05/12 02:57:26;;;;;;;8.20;4.30;;;;;;;;;;5080801;28;20087;-76
2023/05/12 03:00:11;;;;;;;5.93;4.30;;;;;;;;;;5075801;28;20486;-76
2023/05/12 03:02:56;;;;;;;6.82;3.80;;;;;;;;;;5062051;28;20025;-75
2023/05/12 03:05:42;;;;;;;7.60;3.72;;;;;;;;;;5073983;28;20038;-75
2023/05/12 03:08:27;;;;;;;10.10;4.75;;;;;;;;;;5074177;28;20100;-70
2023/05/12 03:11:12;;;;;;;6.00;4.00;;;;;;;;;;5058138;28;20069;-69
2023/05/12 03:13:57;;;;;;;12.30;6.38;;;;;;;;;;5073779;28;20055;-68
2023/05/12 03:16:43;;;;;;;8.38;4.68;;;;;;;;;;5075805;28;20028;-67
2023/05/12 03:19:28;;;;;;;7.50;4.82;;;;;;;;;;5071999;28;20024;-68
2023/05/12 03:22:13;;;;;;;11.05;6.82;;;;;;;;;;5060211;28;20409;-68
2023/05/12 03:24:58;;;;;;;8.95;6.72;;;;;;;;;;5073073;28;20031;-69
2023/05/12 03:27:44;;;;;;;10.82;7.13;;;;;;;;;;5073577;28;20027;-69
2023/05/12 03:30:29;;;;;;;10.90;6.60;;;;;;;;;;5076682;28;20032;-73
2023/05/12 03:33:14;;;;;;;10.48;7.40;;;;;;;;;;5071043;28;20044;-76
2023/05/12 03:35:59;;;;;;;9.57;7.22;;;;;;;;;;5073796;28;20031;-76
2023/05/12 03:38:45;;;;;;;12.77;7.93;;;;;;;;;;5074318;28;20036;-75
2023/05/12 03:41:30;;;;;;;9.38;6.65;;;;;;;;;;5074408;28;20020;-74
2023/05/12 03:44:15;;;;;;;11.00;7.50;;;;;;;;;;5067722;28;20020;-68
2023/05/12 03:47:00;;;;;;;9.38;7.07;;;;;;;;;;5078191;28;20036;-72
2023/05/12 03:49:46;;;;;;;11.70;8.48;;;;;;;;;;5072647;28;20021;-74
2023/05/12 03:52:31;;;;;;;11.20;7.38;;;;;;;;;;5062455;28;20066;-72
2023/05/12 03:55:16;;;;;;;11.50;8.15;;;;;;;;;;5085525;28;20020;-72
2023/05/12 03:58:02;;;;;;;9.43;7.18;;;;;;;;;;5083336;28;20021;-72
2023/05/12 04:00:48;;;;;;;12.05;8.40;;;;;;;;;;5062857;28;20031;-71
2023/05/12 04:03:34;;;;;;;9.73;7.07;;;;;;;;;;5076632;28;20126;-75
2023/05/12 04:06:19;;;;;;;9.70;6.70;;;;;;;;;;5068549;28;20036;-68
2023/05/12 04:09:04;;;;;;;11.20;7.63;;;;;;;;;;5080392;28;20044;-68
2023/05/12 04:11:50;;;;;;;11.00;7.45;;;;;;;;;;5079070;28;20201;-69
2023/05/12 04:14:35;;;;;;;11.27;8.40;;;;;;;;;;5069112;28;20081;-70
2023/05/12 04:17:20;;;;;;;14.07;7.57;;;;;;;;;;5077580;28;20103;-68
2023/05/12 04:20:06;;;;;;;13.10;8.90;;;;;;;;;;5075293;28;20115;-68
2023/05/12 04:22:51;;;;;;;11.80;8.38;;;;;;;;;;5080867;28;20020;-73
2023/05/12 04:25:43;;;;;;;10.35;8.50;;;;;;;;;;5072512;28;20455;-71
2023/05/12 04:28:28;;;;;;;12.23;9.02;;;;;;;;;;5075677;28;20025;-72
2023/05/12 04:31:13;;;;;;;13.25;9.32;;;;;;;;;;5070365;28;20498;-72
2023/05/12 04:33:58;;;;;;;13.07;9.50;;;;;;;;;;5080830;28;20036;-69
2023/05/12 04:36:44;;;;;;;10.55;7.63;;;;;;;;;;5079899;28;20025;-72
2023/05/12 04:39:29;;;;;;;11.80;7.88;;;;;;;;;;5081765;28;20052;-68
2023/05/12 04:42:14;;;;;;;13.02;8.55;;;;;;;;;;5074805;28;20028;-69
2023/05/12 04:44:59;;;;;;;11.45;8.15;;;;;;;;;;5076095;28;20027;-68
2023/05/12 04:47:45;;;;;;;16.40;9.82;;;;;;;;;;5078486;28;20021;-70
2023/05/12 04:50:30;;;;;;;10.15;7.35;;;;;;;;;;5073629;28;20282;-69
2023/05/12 04:53:16;;;;;;;11.23;7.82;;;;;;;;;;5076722;28;20032;-68
2023/05/12 04:56:02;;;;;;;11.60;8.40;;;;;;;;;;5076432;28;20052;-68
2023/05/12 04:58:47;;;;;;;10.55;7.22;;;;;;;;;;5074084;28;20036;-71
2023/05/12 05:01:32;;;;;;;17.60;8.93;;;;;;;;;;5071746;28;20487;-69
2023/05/12 05:04:18;;;;;;;11.57;8.82;;;;;;;;;;5076915;28;20360;-71
2023/05/12 05:07:03;;;;;;;11.45;8.05;;;;;;;;;;5083037;28;20032;-72
2023/05/12 05:09:48;;;;;;;13.25;9.93;;;;;;;;;;5076940;28;20380;-70
2023/05/12 05:12:34;;;;;;;11.57;8.13;;;;;;;;;;5073854;28;20118;-74
2023/05/12 05:15:19;;;;;;;12.15;8.50;;;;;;;;;;5076733;28;20136;-70
2023/05/12 05:18:04;;;;;;;13.75;9.52;;;;;;;;;;5076053;28;20055;-69
2023/05/12 05:20:50;;;;;;;14.43;9.38;;;;;;;;;;5076040;28;20109;-75
2023/05/12 05:23:35;;;;;;;11.68;8.98;;;;;;;;;;5079393;28;20081;-73
2023/05/12 05:26:20;;;;;;;12.38;8.00;;;;;;;;;;5076405;28;20058;-72
2023/05/12 05:29:06;;;;;;;11.70;8.63;;;;;;;;;;5073594;28;20051;-74
2023/05/12 05:31:51;;;;;;;12.30;7.80;;;;;;;;;;5093676;28;20407;-71
2023/05/12 05:34:37;;;;;;;10.20;7.38;;;;;;;;;;5078772;28;20035;-71
2023/05/12 05:37:22;;;;;;;9.55;7.20;;;;;;;;;;5082854;28;20020;-69
2023/05/12 05:40:10;;;;;;;12.07;8.68;;;;;;;;;;5085070;28;20024;-72
2023/05/12 05:42:55;;;;;;;14.57;10.25;;;;;;;;;;5092077;28;20540;-68
2023/05/12 05:45:40;;;;;;;11.05;8.18;;;;;;;;;;5068365;28;20309;-70
2023/05/12 05:48:26;;;;;;;11.00;7.90;;;;;;;;;;5068831;28;20094;-72
2023/05/12 05:51:11;;;;;;;10.50;7.53;;;;;;;;;;5069361;28;20063;-70
2023/05/12 05:53:56;;;;;;;11.18;7.57;;;;;;;;;;5090303;27;20089;-73
2023/05/12 05:56:41;;;;;;;11.18;8.25;;;;;;;;;;5085660;28;20035;-63
2023/05/12 05:59:27;;;;;;;10.90;7.88;;;;;;;;;;5085454;28;20027;-75
2023/05/12 06:02:12;;;;;;;11.18;7.72;;;;;;;;;;5063638;28;20060;-72
2023/05/12 06:04:58;;;;;;;9.68;7.05;;;;;;;;;;5083870;28;20029;-72
2023/05/12 06:07:44;;;;;;;11.05;6.80;;;;;;;;;;5076091;28;20109;-75
2023/05/12 06:10:29;;;;;;;10.70;7.40;;;;;;;;;;5073727;28;20037;-73
2023/05/12 06:13:14;;;;;;;10.07;6.53;;;;;;;;;;5084723;28;20105;-70
2023/05/12 06:16:00;;;;;;;12.43;6.65;;;;;;;;;;5071626;28;20459;-71
2023/05/12 06:18:45;;;;;;;11.98;8.00;;;;;;;;;;5081184;28;20034;-75
2023/05/12 06:21:31;;;;;;;10.60;6.72;;;;;;;;;;5076363;28;20116;-73
2023/05/12 06:24:16;;;;;;;11.82;7.47;;;;;;;;;;5061148;28;20066;-71
2023/05/12 06:27:01;;;;;;;23.73;8.13;;;;;;;;;;5087299;28;20038;-71
2023/05/12 06:29:46;;;;;;;8.95;5.97;;;;;;;;;;5072176;28;20479;-69
2023/05/12 06:32:32;;;;;;;11.50;7.35;;;;;;;;;;5091974;28;20042;-71
2023/05/12 06:35:17;;;;;;;9.63;6.05;;;;;;;;;;5081985;28;20050;-69
2023/05/12 06:38:02;;;;;;;10.68;7.55;;;;;;;;;;5075972;28;20027;-70
2023/05/12 06:40:47;;;;;;;10.10;6.82;;;;;;;;;;5073510;28;20031;-68
2023/05/12 06:43:33;;;;;;;11.38;6.85;;;;;;;;;;5085726;28;20024;-69
2023/05/12 06:46:18;;;;;;;10.25;6.63;;;;;;;;;;5073323;28;20036;-70
2023/05/12 06:49:03;;;;;;;10.98;7.25;;;;;;;;;;5074397;28;20124;-72
2023/05/12 06:51:48;;;;;;;10.23;7.07;;;;;;;;;;5079776;28;20032;-74
2023/05/12 06:54:34;;;;;;;7.97;5.57;;;;;;;;;;5076758;28;20217;-73
2023/05/12 06:57:19;;;;;;;10.82;7.45;;;;;;;;;;5074423;28;20081;-77
2023/05/12 07:00:04;;;;;;;9.25;6.10;;;;;;;;;;5071592;28;20078;-76
2023/05/12 07:02:50;;;;;;;10.07;7.30;;;;;;;;;;5087987;28;20023;-74
2023/05/12 07:05:35;;;;;;;9.82;6.35;;;;;;;;;;5081776;28;20540;-74
2023/05/12 07:08:20;;;;;;;10.38;6.25;;;;;;;;;;5079449;28;20027;-72
2023/05/12 07:11:05;;;;;;;10.10;6.43;;;;;;;;;;5086128;28;20024;-68
2023/05/12 07:13:51;;;;;;;10.18;6.70;;;;;;;;;;5073890;28;20071;-68
2023/05/12 07:16:36;;;;;;;8.80;5.75;;;;;;;;;;5067638;28;20042;-70
2023/05/12 07:19:21;;;;;;;10.35;5.25;;;;;;;;;;5069222;28;20038;-67
2023/05/12 07:22:07;;;;;;;11.10;5.78;;;;;;;;;;5074140;28;20329;-68
2023/05/12 07:24:52;;;;;;;9.32;5.60;;;;;;;;;;5079916;28;20033;-76
2023/05/12 07:27:38;;;;;;;10.93;6.00;;;;;;;;;;5076839;28;20032;-73
2023/05/12 07:30:23;;;;;;;15.63;5.95;;;;;;;;;;5076948;28;20027;-71
2023/05/12 07:33:08;;;;;;;9.00;6.32;;;;;;;;;;5077308;28;20037;-70
2023/05/12 07:35:53;;;;;;;9.85;6.70;;;;;;;;;;5080000;28;20495;-71
2023/05/12 07:38:39;;;;;;;9.75;6.30;;;;;;;;;;5073220;28;20024;-70
2023/05/12 07:41:25;;;;;;;9.57;5.53;;;;;;;;;;5086720;28;20085;-71
2023/05/12 07:44:10;;;;;;;7.85;5.22;;;;;;;;;;5082908;28;20019;-66
2023/05/12 07:46:55;;;;;;;8.75;6.28;;;;;;;;;;5071534;28;20106;-68
2023/05/12 07:49:40;;;;;;;9.90;5.70;;;;;;;;;;5074764;28;20020;-67
2023/05/12 07:52:25;;;;;;;9.55;6.55;;;;;;;;;;5088654;28;20093;-67
2023/05/12 07:55:11;;;;;;;8.30;5.15;;;;;;;;;;5058275;28;20025;-67
2023/05/12 07:57:56;;;;;;;8.00;5.35;;;;;;;;;;5078163;28;20021;-68
2023/05/12 08:00:42;;;;;;;9.50;5.80;;;;;;;;;;5079296;28;20112;-66
2023/05/12 08:03:27;;;;;;;7.55;4.50;;;;;;;;;;5079698;28;20154;-69
2023/05/12 08:06:12;;;;;;;6.25;4.65;;;;;;;;;;5077379;28;20424;-71
2023/05/12 08:08:58;;;;;;;7.32;3.75;;;;;;;;;;5081099;28;20024;-68
2023/05/12 08:11:43;;;;;;;4.80;3.45;;;;;;;;;;5076405;28;20059;-67
2023/05/12 08:14:28;;;;;;;6.88;3.65;;;;;;;;;;5070930;28;20399;-69
2023/05/12 08:17:14;;;;;;;6.97;4.25;;;;;;;;;;5078519;28;20048;-68
2023/05/12 08:19:59;;;;;;;7.03;4.18;;;;;;;;;;5085109;28;20336;-67
2023/05/12 08:22:46;;;;;;;5.47;3.35;;;;;;;;;;5079731;28;20028;-72
2023/05/12 08:25:33;;;;;;;3.53;2.47;;;;;;;;;;5072706;28;20033;-70
2023/05/12 08:28:19;;;;;;;6.90;4.05;;;;;;;;;;5082808;28;20442;-69
2023/05/12 08:31:04;;;;;;;6.22;3.60;;;;;;;;;;5081102;28;20124;-70
2023/05/12 08:33:49;;;;;;;6.10;4.18;;;;;;;;;;5092965;28;20567;-70
2023/05/12 08:36:34;;;;;;;6.20;4.20;;;;;;;;;;5072872;28;20032;-70
2023/05/12 08:39:20;;;;;;;5.82;3.80;;;;;;;;;;5077225;28;20058;-73
2023/05/12 08:42:08;;;;;;;5.43;3.33;;;;;;;;;;5097295;28;20032;-66
2023/05/12 08:44:54;;;;;;;6.05;3.63;;;;;;;;;;5078178;28;20426;-66
2023/05/12 08:47:40;;;;;;;4.97;3.78;;;;;;;;;;5077933;28;20375;-64
2023/05/12 08:50:26;;;;;;;4.30;2.78;;;;;;;;;;5085548;28;20027;-67
2023/05/12 08:53:12;;;;;;;5.60;3.35;;;;;;;;;;5076762;28;20040;-66
2023/05/12 08:55:59;;;;;;;3.92;3.17;;;;;;;;;;5095207;28;20008;-64
2023/05/12 08:58:45;;;;;;;4.15;2.92;;;;;;;;;;5079791;28;20039;-69
2023/05/12 09:01:30;;;;;;;6.43;3.25;;;;;;;;;;5061153;28;20055;-71
2023/05/12 09:04:16;;;;;;;5.72;3.13;;;;;;;;;;5078973;28;20034;-71
2023/05/12 09:07:02;;;;;;;6.05;2.95;;;;;;;;;;5086623;28;20059;-76
2023/05/12 09:09:51;;;;;;;5.43;2.92;;;;;;;;;;5071669;28;20109;-74
2023/05/12 09:12:36;;;;;;;5.07;3.53;;;;;;;;;;5078534;28;20411;-73
2023/05/12 09:15:25;;;;;;;5.05;2.90;;;;;;;;;;5074535;28;20020;-72
2023/05/12 09:18:10;;;;;;;5.63;3.60;;;;;;;;;;5077609;28;20442;-74
2023/05/12 09:20:55;;;;;;;4.28;2.90;;;;;;;;;;5075929;28;20032;-71
2023/05/12 09:23:50;;;;;;;4.25;3.10;;;;;;;;;;5092389;27;20012;-76
2023/05/12 09:26:48;;;;;;;5.22;2.70;;;;;;;;;;5074725;28;20114;-71
2023/05/12 09:29:34;;;;;;;6.45;3.00;;;;;;;;;;5077770;28;20073;-72
2023/05/12 09:32:49;;;;;;;4.50;2.95;;;;;;;;;;5070513;28;20078;-70
2023/05/12 09:35:38;;;;;;;5.45;3.35;;;;;;;;;;5074529;28;20114;-69
2023/05/12 09:38:23;;;;;;;5.90;3.15;;;;;;;;;;5074554;28;20040;-69
2023/05/12 09:41:08;;;;;;;6.32;3.20;;;;;;;;;;5083986;27;20031;-69
2023/05/12 09:43:54;;;;;;;4.55;2.33;;;;;;;;;;5070410;28;20028;-68
2023/05/12 09:46:39;;;;;;;5.05;3.00;;;;;;;;;;5071699;28;20473;-68
2023/05/12 09:49:25;;;;;;;4.13;2.78;;;;;;;;;;5069818;28;20043;-69
2023/05/12 09:52:10;;;;;;;5.50;3.20;;;;;;;;;;5073239;28;20090;-67
2023/05/12 09:54:56;;;;;;;2.80;2.45;;;;;;;;;;5079121;28;20065;-71
2023/05/12 09:57:42;;;;;;;5.10;3.65;;;;;;;;;;5079892;28;20532;-71
2023/05/12 10:00:27;;;;;;;4.22;2.90;;;;;;;;;;5069184;28;20035;-71
2023/05/12 10:03:14;;;;;;;4.07;2.80;;;;;;;;;;5075058;28;20378;-70
2023/05/12 10:06:01;;;;;;;5.53;3.35;;;;;;;;;;5074514;28;20023;-68
2023/05/12 10:08:49;;;;;;;5.57;3.47;;;;;;;;;;5086712;28;20021;-70
2023/05/12 10:11:35;;;;;;;3.83;2.80;;;;;;;;;;5077311;28;20093;-68
2023/05/12 10:14:21;;;;;;;3.72;2.80;;;;;;;;;;5067718;28;20035;-69
2023/05/12 10:17:06;;;;;;;4.82;2.58;;;;;;;;;;5070469;28;20040;-68
2023/05/12 10:19:52;;;;;;;2.47;2.28;;;;;;;;;;5076395;28;20479;-69
2023/05/12 10:22:39;;;;;;;2.80;2.28;;;;;;;;;;5076907;28;20049;-69
2023/05/12 10:25:24;;;;;;;3.08;2.60;;;;;;;;;;5079101;28;20031;-68
2023/05/12 10:28:10;;;;;;;3.83;2.55;;;;;;;;;;5083423;28;20027;-68
2023/05/12 10:30:56;;;;;;;2.92;2.10;;;;;;;;;;5077017;28;20028;-68
2023/05/12 10:33:41;;;;;;;4.78;2.90;;;;;;;;;;5075299;28;20027;-67
2023/05/12 10:36:27;;;;;;;4.10;2.67;;;;;;;;;;5071245;28;20470;-69
2023/05/12 10:39:14;;;;;;;4.07;2.40;;;;;;;;;;5069803;28;20115;-68
2023/05/12 10:42:00;;;;;;;6.18;3.58;;;;;;;;;;5070710;28;20472;-66
2023/05/12 10:44:52;;;;;;;11.13;5.00;;;;;;;;;;5072215;28;20063;-70
2023/05/12 10:47:38;;;;;;;7.15;4.05;;;;;;;;;;5077865;28;20036;-72
2023/05/12 10:50:27;;;;;;;6.40;2.92;;;;;;;;;;5081247;28;20038;-66
2023/05/12 10:53:12;;;;;;;4.35;3.13;;;;;;;;;;5069351;28;20374;-66
2023/05/12 10:56:01;;;;;;;4.82;2.63;;;;;;;;;;5070021;28;20035;-67
2023/05/12 10:58:46;;;;;;;;;;;;;;;;;;5075644;28;20037;-69
2023/05/12 11:01:32;;;;;;;3.10;2.38;;;;;;;;;;5095894;28;19904;-73
2023/05/12 11:04:20;;;;;;;6.47;3.10;;;;;;;;;;5073048;28;20023;-69
2023/05/12 11:07:08;;;;;;;5.45;3.13;;;;;;;;;;5078034;28;20089;-67
2023/05/12 11:09:54;;;;;;;4.32;3.22;;;;;;;;;;5078450;28;20070;-67
2023/05/12 11:12:41;;;;;;;4.45;2.90;;;;;;;;;;5088611;28;20085;-71
2023/05/12 11:15:27;;;;;;;4.55;3.28;;;;;;;;;;5069838;28;20048;-71
2023/05/12 11:18:12;;;;;;;6.78;3.60;;;;;;;;;;5071699;28;20021;-70
2023/05/12 11:20:57;;;;;;;3.92;3.13;;;;;;;;;;5074493;28;20487;-69
2023/05/12 11:23:42;;;;;;;4.28;3.20;;;;;;;;;;5069459;28;20093;-71
2023/05/12 11:26:28;;;;;;;4.80;3.50;;;;;;;;;;5079583;28;20094;-77
2023/05/12 11:29:14;;;;;;;4.18;3.00;;;;;;;;;;5070874;28;20028;-71
2023/05/12 11:31:59;;;;;;;4.55;3.78;;;;;;;;;;5088346;28;20215;-70
2023/05/12 11:34:46;;;;;;;6.45;3.13;;;;;;;;;;5068114;28;20027;-72
2023/05/12 11:37:35;;;;;;;5.10;2.58;;;;;;;;;;5072391;28;20020;-70
2023/05/12 11:40:21;;;;;;;5.70;2.45;;;;;;;;;;5085414;28;20035;-72
2023/05/12 11:43:08;;;;;;;4.53;2.97;;;;;;;;;;5079677;28;20470;-71
2023/05/12 11:45:58;;;;;;;3.00;2.47;;;;;;;;;;5093354;27;20107;-72
2023/05/12 11:48:43;;;;;;;3.35;2.58;;;;;;;;;;5087158;28;20571;-72
2023/05/12 11:51:29;;;;;;;4.63;3.00;;;;;;;;;;5075971;28;20059;-71
2023/05/12 11:54:14;;;;;;;3.25;2.15;;;;;;;;;;5065277;28;20043;-72
2023/05/12 11:57:00;;;;;;;2.50;2.15;;;;;;;;;;5084169;28;20024;-71
2023/05/12 11:59:55;;;;;;;3.88;2.15;;;;;;;;;;5081957;28;20024;-73
2023/05/12 12:02:42;;;;;;;4.05;1.60;;;;;;;;;;5085143;28;20032;-74
2023/05/12 12:05:27;;;;;;;3.72;2.10;;;;;;;;;;5090073;28;20027;-68
2023/05/12 12:08:13;;;;;;;4.18;1.95;;;;;;;;;;5079099;28;20241;-68
2023/05/12 12:10:59;;;;;;;3.53;1.50;;;;;;;;;;5076140;28;20024;-67
2023/05/12 12:13:51;;;;;;;2.90;2.00;;;;;;;;;;5073356;28;20569;-70
2023/05/12 12:16:36;;;;;;;3.67;2.10;;;;;;;;;;5079171;28;20462;-68
2023/05/12 12:19:22;;;;;;;2.35;1.67;;;;;;;;;;5081984;28;20028;-71
2023/05/12 12:22:07;;;;;;;2.53;1.85;;;;;;;;;;5062493;28;20483;-68
2023/05/12 12:24:52;;;;;;;2.88;2.35;;;;;;;;;;5074675;28;20494;-69
2023/05/12 12:27:38;;;;;;;3.67;2.13;;;;;;;;;;5075255;28;20036;-68
2023/05/12 12:30:23;;;;;;;2.97;2.38;;;;;;;;;;5068637;28;20047;-68
2023/05/12 12:33:08;;;;;;;7.32;3.17;;;;;;;;;;5078740;28;20101;-68
2023/05/12 12:35:53;;;;;;;4.00;2.85;;;;;;;;;;5088516;28;20076;-67
2023/05/12 12:38:38;;;;;;;5.20;2.85;;;;;;;;;;5088724;28;20385;-69
2023/05/12 12:41:24;;;;;;;3.78;2.78;;;;;;;;;;5078525;28;20154;-73
2023/05/12 12:44:09;;;;;;;5.32;3.35;;;;;;;;;;5080217;28;20032;-76
2023/05/12 12:46:55;;;;;;;3.92;2.17;;;;;;;;;;5081808;28;20038;-75
2023/05/12 12:49:40;;;;;;;4.82;2.28;;;;;;;;;;5072870;28;20107;-72
2023/05/12 12:52:25;;;;;;;4.03;2.72;;;;;;;;;;5074832;28;20462;-73
2023/05/12 12:55:10;;;;;;;5.65;2.80;;;;;;;;;;5076961;28;20031;-73
2023/05/12 12:57:56;;;;;;;3.65;2.70;;;;;;;;;;5082696;28;20045;-73
2023/05/12 13:00:42;;;;;;;4.63;2.72;;;;;;;;;;5058047;28;20435;-71
2023/05/12 13:03:27;;;;;;;4.05;2.40;;;;;;;;;;5076909;28;20622;-68
2023/05/12 13:06:12;;;;;;;3.80;2.38;;;;;;;;;;5087045;28;20073;-69
2023/05/12 13:08:59;;;;;;;3.03;1.90;;;;;;;;;;5085753;28;20383;-68
2023/05/12 13:11:45;;;;;;;4.88;2.25;;;;;;;;;;5084825;27;20101;-69
2023/05/12 13:14:30;;;;;;;3.50;1.80;;;;;;;;;;5070118;28;20040;-71
2023/05/12 13:17:16;;;;;;;1.55;1.42;;;;;;;;;;5072813;28;20027;-75
2023/05/12 13:20:02;;;;;;;2.53;1.70;;;;;;;;;;5078240;28;20021;-74
2023/05/12 13:22:47;;;;;;;2.45;2.03;;;;;;;;;;5076793;28;20034;-74
2023/05/12 13:25:33;;;;;;;3.30;1.75;;;;;;;;;;5080524;28;20020;-75
2023/05/12 13:28:18;;;;;;;2.40;1.90;;;;;;;;;;5076432;28;20016;-77
2023/05/12 13:31:04;;;;;;;3.67;2.10;;;;;;;;;;5076576;28;20027;-74
2023/05/12 13:33:50;;;;;;;3.47;2.53;;;;;;;;;;5078956;28;20498;-74
2023/05/12 13:36:35;;;;;;;6.85;2.50;;;;;;;;;;5071365;22;20057;-68
2023/05/12 13:39:20;;;;;;;7.28;2.38;;;;;;;;;;5021254;28;20026;-68
2023/05/12 13:42:06;;;;;;;3.38;2.30;;;;;;;;;;5007989;28;20030;-68
2023/05/12 13:44:51;;;;;;;6.22;2.28;;;;;;;;;;5005516;28;20034;-66
2023/05/12 13:47:36;;;;;;;4.45;2.47;;;;;;;;;;5005816;28;20117;-68
2023/05/12 13:50:21;;;;;;;5.38;2.28;;;;;;;;;;5019914;28;20777;-67
2023/05/12 13:53:07;;;;;;;4.38;2.60;;;;;;;;;;5010797;28;20148;-71
2023/05/12 13:55:52;;;;;;;2.85;2.25;;;;;;;;;;5023278;28;20041;-68
2023/05/12 13:58:37;;;;;;;5.03;2.75;;;;;;;;;;5011272;28;20554;-68
2023/05/12 14:01:22;;;;;;;3.92;2.70;;;;;;;;;;5023579;28;20036;-72
2023/05/12 14:04:07;;;;;;;4.85;2.78;;;;;;;;;;5019111;28;20480;-69
2023/05/12 14:06:53;;;;;;;4.28;2.80;;;;;;;;;;5024358;28;20120;-70
2023/05/12 14:09:38;;;;;;;4.63;3.08;;;;;;;;;;5036947;28;20034;-64
2023/05/12 14:12:24;;;;;;;4.18;3.08;;;;;;;;;;5044754;28;20044;-66
2023/05/12 14:15:10;;;;;;;5.63;3.10;;;;;;;;;;5024801;28;20163;-66
2023/05/12 14:17:55;;;;;;;4.53;3.33;;;;;;;;;;5025144;28;20372;-68
2023/05/12 14:20:41;;;;;;;9.45;4.90;;;;;;;;;;5025413;28;20068;-65
2023/05/12 14:23:26;;;;;;;8.13;5.15;;;;;;;;;;5025448;28;20025;-66
2023/05/12 14:26:12;;;;;;;7.10;4.80;;;;;;;;;;5024632;28;20500;-65
2023/05/12 14:28:57;;;;;;;5.85;4.50;;;;;;;;;;5022078;28;20021;-71
2023/05/12 14:31:42;;;;;;;9.10;5.00;;;;;;;;;;5026030;28;20531;-72
2023/05/12 14:34:27;;;;;;;7.88;4.78;;;;;;;;;;5023640;28;20511;-71
2023/05/12 14:37:12;;;;;;;7.13;4.32;;;;;;;;;;5022290;28;20049;-73
2023/05/12 14:39:58;;;;;;;7.25;4.95;;;;;;;;;;5029012;28;20026;-69
2023/05/12 14:42:43;;;;;;;7.80;5.25;;;;;;;;;;5023540;28;20507;-70
2023/05/12 14:45:30;;;;;;;6.68;3.85;;;;;;;;;;5024120;28;20048;-70
2023/05/12 14:48:15;;;;;;;6.97;4.30;;;;;;;;;;5024989;28;20480;-63
2023/05/12 14:51:02;;;;;;;7.10;4.20;;;;;;;;;;5021757;28;20065;-69
2023/05/12 14:53:47;;;;;;;5.85;4.57;;;;;;;;;;5027850;28;20120;-73
2023/05/12 14:56:33;;;;;;;7.10;4.63;;;;;;;;;;5020479;28;20032;-70
2023/05/12 14:59:18;;;;;;;4.63;3.33;;;;;;;;;;5021825;28;20045;-71
2023/05/12 15:02:03;;;;;;;4.45;3.35;;;;;;;;;;5027785;28;20036;-72
2023/05/12 15:04:48;;;;;;;7.35;4.25;;;;;;;;;;5013839;28;20075;-72
2023/05/12 15:07:34;;;;;;;4.72;3.72;;;;;;;;;;5027601;28;20120;-70
2023/05/12 15:10:19;;;;;;;4.63;3.97;;;;;;;;;;5012697;28;20026;-70
2023/05/12 15:13:05;;;;;;;5.70;3.72;;;;;;;;;;5022951;28;20030;-73
2023/05/12 15:15:51;;;;;;;6.43;3.80;;;;;;;;;;5010158;28;20073;-71
2023/05/12 15:18:36;;;;;;;5.75;4.20;;;;;;;;;;5026714;28;20468;-73
2023/05/12 15:21:22;;;;;;;6.35;4.20;;;;;;;;;;5023033;28;20108;-73
2023/05/12 15:24:07;;;;;;;6.65;3.83;;;;;;;;;;5038145;28;20036;-65
2023/05/12 15:26:52;;;;;;;6.82;3.60;;;;;;;;;;5027065;28;20067;-72
2023/05/12 15:29:38;;;;;;;7.43;4.13;;;;;;;;;;5026882;28;20032;-72
2023/05/12 15:32:24;;;;;;;4.72;3.70;;;;;;;;;;5024057;28;20044;-72
2023/05/12 15:35:11;;;;;;;4.72;3.58;;;;;;;;;;5011615;28;20139;-70
2023/05/12 15:37:56;;;;;;;6.20;4.13;;;;;;;;;;5017957;28;20615;-73
2023/05/12 15:40:41;;;;;;;6.13;4.15;;;;;;;;;;5013585;28;20041;-71
2023/05/12 15:43:26;;;;;;;5.50;3.90;;;;;;;;;;5024064;28;20021;-66
2023/05/12 15:46:11;;;;;;;6.97;3.92;;;;;;;;;;5072303;22;20045;-75
2023/05/12 15:48:57;;;;;;;6.10;3.65;;;;;;;;;;5020245;28;20067;-75
2023/05/12 15:51:43;;;;;;;5.57;3.80;;;;;;;;;;5006087;28;20021;-74
2023/05/12 15:54:29;;;;;;;8.52;3.30;;;;;;;;;;5001145;28;20045;-75
2023/05/12 15:57:15;;;;;;;6.65;3.40;;;;;;;;;;5001152;28;20021;-74
2023/05/12 16:00:00;;;;;;;5.75;3.50;;;;;;;;;;4999789;28;20385;-71
2023/05/12 16:02:46;;;;;;;3.90;2.78;;;;;;;;;;4994180;28;20564;-73
2023/05/12 16:05:32;;;;;;;5.30;3.17;;;;;;;;;;5021874;28;20040;-73
2023/05/12 16:08:18;;;;;;;4.43;3.67;;;;;;;;;;5022034;28;20469;-72
2023/05/12 16:11:03;;;;;;;5.47;3.65;;;;;;;;;;5023224;28;20484;-72
2023/05/12 16:13:50;;;;;;;5.82;3.75;;;;;;;;;;5023686;28;20044;-72
2023/05/12 16:16:37;;;;;;;4.85;3.25;;;;;;;;;;5027309;28;20220;-72
2023/05/12 16:19:22;;;;;;;3.67;2.97;;;;;;;;;;5022335;28;20047;-68
2023/05/12 16:22:08;;;;;;;4.50;2.75;;;;;;;;;;5027221;28;20021;-72
2023/05/12 16:24:55;;;;;;;5.45;2.63;;;;;;;;;;5018000;28;20121;-73
2023/05/12 16:27:41;;;;;;;4.35;2.78;;;;;;;;;;5000155;28;20025;-71
2023/05/12 16:30:26;;;;;;;4.25;3.00;;;;;;;;;;5020389;28;20041;-74